createdAt,value
2023-05-14T00:01:23.631Z,85.2
2023-05-14T00:04:23.667Z,85.6
2023-05-14T00:07:23.655Z,86.3
2023-05-14T00:10:23.849Z,86.5
2023-05-14T00:13:23.654Z,86.2
2023-05-14T00:16:23.701Z,86.3
2023-05-14T00:19:23.664Z,86.7
2023-05-14T00:22:23.684Z,86.8
2023-05-14T00:25:23.674Z,86.9
2023-05-14T00:28:23.678Z,87.2
2023-05-14T00:31:23.717Z,87.6
2023-05-14T00:34:23.699Z,87.9
2023-05-14T00:37:23.693Z,87.9
2023-05-14T00:40:23.904Z,88.1
2023-05-14T00:43:23.704Z,88
2023-05-14T00:46:23.760Z,88.1
2023-05-14T00:49:23.718Z,88.3
2023-05-14T00:52:23.706Z,88.5
2023-05-14T00:55:23.725Z,88.3
2023-05-14T00:58:23.735Z,88.2
2023-05-14T01:01:23.771Z,88.1
2023-05-14T01:04:23.738Z,88.1
2023-05-14T01:07:23.751Z,88.4
2023-05-14T01:10:23.954Z,88.3
2023-05-14T01:13:23.733Z,88.4
2023-05-14T01:16:23.783Z,88.2
2023-05-14T01:19:23.772Z,88.1
2023-05-14T01:22:23.767Z,88.2
2023-05-14T01:25:23.769Z,88.2
2023-05-14T01:28:23.773Z,87.8
2023-05-14T01:31:23.772Z,87.3
2023-05-14T01:34:23.830Z,87.2
2023-05-14T01:37:23.769Z,87.4
2023-05-14T01:40:24.088Z,87.9
2023-05-14T01:43:23.796Z,88.6
2023-05-14T01:46:23.839Z,89.3
2023-05-14T01:49:23.797Z,90.2
2023-05-14T01:52:23.795Z,90.3
2023-05-14T01:55:23.791Z,90.2
2023-05-14T01:58:23.782Z,90.5
2023-05-14T02:01:23.818Z,91
2023-05-14T02:04:23.856Z,91.2
2023-05-14T02:07:23.813Z,91.5
2023-05-14T02:10:23.943Z,91.7
2023-05-14T02:13:23.802Z,91.5
2023-05-14T02:16:23.848Z,91.1
2023-05-14T02:19:23.820Z,90.9
2023-05-14T02:22:23.822Z,91
2023-05-14T02:25:23.826Z,91.3
2023-05-14T02:28:23.828Z,91.7
2023-05-14T02:31:23.892Z,91.9
2023-05-14T02:34:23.859Z,92
2023-05-14T02:37:23.843Z,92.3
2023-05-14T02:40:24.028Z,92.4
2023-05-14T02:43:23.844Z,92.4
2023-05-14T02:46:23.885Z,92.6
2023-05-14T02:49:23.905Z,92.9
2023-05-14T02:52:23.856Z,93.1
2023-05-14T02:55:23.858Z,93.2
2023-05-14T02:58:28.102Z,93.2
2023-05-14T03:01:24.007Z,93.2
2023-05-14T03:04:23.893Z,93.1
2023-05-14T03:07:23.878Z,93.1
2023-05-14T03:10:24.033Z,92.8
2023-05-14T03:13:23.882Z,92.7
2023-05-14T03:16:23.909Z,92.7
2023-05-14T03:19:23.910Z,92.4
2023-05-14T03:22:23.889Z,92.3
2023-05-14T03:25:23.885Z,92.5
2023-05-14T03:28:23.895Z,92.6
2023-05-14T03:31:23.957Z,93.1
2023-05-14T03:34:23.912Z,93.5
2023-05-14T03:37:23.930Z,93.6
2023-05-14T03:40:24.076Z,93.5
2023-05-14T03:43:23.964Z,93.5
2023-05-14T03:46:23.966Z,93.6
2023-05-14T03:49:23.984Z,93.8
2023-05-14T03:52:23.971Z,93.9
2023-05-14T03:55:24.018Z,94.1
2023-05-14T03:58:24.002Z,94.2
2023-05-14T04:01:24.002Z,94.1
2023-05-14T04:04:24.036Z,93.8
2023-05-14T04:07:24.006Z,93.7
2023-05-14T04:10:24.193Z,93.7
2023-05-14T04:13:24.007Z,93.6
2023-05-14T04:16:24.083Z,93.4
2023-05-14T04:19:24.031Z,93.2
2023-05-14T04:22:24.031Z,92.9
2023-05-14T04:25:24.025Z,92.8
2023-05-14T04:28:24.029Z,92.6
2023-05-14T04:31:24.110Z,92.5
2023-05-14T04:34:24.055Z,92.3
2023-05-14T04:37:24.039Z,91.9
2023-05-14T04:40:24.378Z,91.3
2023-05-14T04:43:24.052Z,90.7
2023-05-14T04:46:24.110Z,90
2023-05-14T04:49:24.081Z,88.9
2023-05-14T04:52:24.080Z,87.8
2023-05-14T04:55:24.073Z,87
2023-05-14T04:58:24.097Z,86.3
2023-05-14T05:01:24.160Z,85.7
2023-05-14T05:04:24.129Z,85.6
2023-05-14T05:07:24.096Z,84.9
2023-05-14T05:10:24.399Z,84.1
2023-05-14T05:13:24.109Z,83.1
2023-05-14T05:16:24.148Z,81.9
2023-05-14T05:19:32.436Z,80
2023-05-14T05:22:24.126Z,79.3
2023-05-14T05:25:24.124Z,78.6
2023-05-14T05:28:24.136Z,77.2
2023-05-14T05:31:24.144Z,76.4
2023-05-14T05:34:24.146Z,76.1
2023-05-14T05:37:24.134Z,75.8
2023-05-14T05:40:24.300Z,75.5
2023-05-14T05:43:24.134Z,75.7
2023-05-14T05:46:24.201Z,75.6
2023-05-14T05:49:24.174Z,75.5
2023-05-14T05:52:24.147Z,75.2
2023-05-14T05:55:24.152Z,74.7
2023-05-14T05:58:24.166Z,74.5
2023-05-14T06:01:24.203Z,73.9
2023-05-14T06:04:24.176Z,73.8
2023-05-14T06:07:24.177Z,73.8
2023-05-14T06:10:24.336Z,73.2
2023-05-14T06:13:24.184Z,72
2023-05-14T06:16:24.239Z,69.5
2023-05-14T06:19:24.205Z,67.9
2023-05-14T06:22:24.198Z,67.2
2023-05-14T06:25:24.204Z,67.1
2023-05-14T06:31:24.267Z,67.9
2023-05-14T06:34:24.244Z,67.8
2023-05-14T06:37:24.229Z,67.3
2023-05-14T06:40:24.358Z,65.6
2023-05-14T06:43:24.232Z,63
2023-05-14T06:46:24.254Z,60
2023-05-14T06:49:24.245Z,59.4
2023-05-14T06:52:24.249Z,58.5
2023-05-14T06:55:24.252Z,59.2
2023-05-14T06:58:24.257Z,59.2
2023-05-14T07:01:24.290Z,58.9
2023-05-14T07:04:24.304Z,59.4
2023-05-14T07:07:24.270Z,58.5
2023-05-14T07:10:24.386Z,56.8
2023-05-14T07:13:24.949Z,56.7
2023-05-14T07:16:24.292Z,55.4
2023-05-14T07:19:24.293Z,54.6
2023-05-14T07:22:24.290Z,54.1
2023-05-14T07:25:24.289Z,53.1
2023-05-14T07:28:24.356Z,52.1
2023-05-14T07:31:24.384Z,50.5
2023-05-14T07:34:24.346Z,50.9
2023-05-14T07:37:24.362Z,51.3
2023-05-14T07:40:24.441Z,50.5
2023-05-14T07:43:24.319Z,50.3
2023-05-14T07:46:24.333Z,48.5
2023-05-14T07:49:24.346Z,47.6
2023-05-14T07:52:24.354Z,47
2023-05-14T07:55:24.363Z,46.4
2023-05-14T07:58:24.360Z,47.1
2023-05-14T08:01:24.348Z,48.6
2023-05-14T08:04:24.386Z,50.3
2023-05-14T08:07:24.356Z,51.4
2023-05-14T08:10:24.596Z,51.7
2023-05-14T08:13:24.375Z,51.7
2023-05-14T08:16:24.446Z,51.4
2023-05-14T08:19:24.425Z,50.6
2023-05-14T08:22:24.388Z,49.4
2023-05-14T08:25:24.391Z,47.6
2023-05-14T08:28:24.402Z,46.1
2023-05-14T08:31:24.423Z,45.5
2023-05-14T08:34:24.416Z,46.6
2023-05-14T08:37:24.402Z,48
2023-05-14T08:40:24.600Z,45.4
2023-05-14T08:43:24.420Z,44.6
2023-05-14T08:46:24.434Z,41.9
2023-05-14T08:49:24.415Z,42
2023-05-14T08:52:24.423Z,41.1
2023-05-14T08:55:24.426Z,40.7
2023-05-14T08:58:24.427Z,40.4
2023-05-14T09:01:24.454Z,41.2
2023-05-14T09:04:24.459Z,42.7
2023-05-14T09:07:24.443Z,40.8
2023-05-14T09:10:24.685Z,40.3
2023-05-14T09:13:25.800Z,39
2023-05-14T09:16:24.504Z,38.2
2023-05-14T09:19:24.463Z,36.8
2023-05-14T09:22:24.463Z,35.6
2023-05-14T09:25:24.475Z,34
2023-05-14T09:28:24.490Z,34.4
2023-05-14T09:31:24.526Z,34.9
2023-05-14T09:34:24.498Z,34.9
2023-05-14T09:37:24.476Z,35.5
2023-05-14T09:40:25.061Z,36.2
2023-05-14T09:43:24.523Z,37.8
2023-05-14T09:46:24.503Z,37.8
2023-05-14T09:49:24.512Z,37.6
2023-05-14T09:52:24.504Z,37.2
2023-05-14T09:55:24.512Z,37.6
2023-05-14T09:58:24.534Z,36.9
2023-05-14T10:01:24.605Z,36.9
2023-05-14T10:04:24.599Z,36.8
2023-05-14T10:07:24.528Z,37.5
2023-05-14T10:10:24.745Z,37.9
2023-05-14T10:13:24.590Z,37.4
2023-05-14T10:16:24.560Z,37
2023-05-14T10:19:24.624Z,36.6
2023-05-14T10:22:24.554Z,37
2023-05-14T10:25:24.545Z,36.9
2023-05-14T10:28:24.554Z,37.3
2023-05-14T10:31:24.616Z,36.4
2023-05-14T10:34:24.569Z,35.8
2023-05-14T10:37:24.577Z,35.3
2023-05-14T10:40:24.940Z,34.2
2023-05-14T10:43:24.578Z,34.5
2023-05-14T10:46:24.664Z,35.2
2023-05-14T10:49:36.274Z,35.1
2023-05-14T10:52:24.602Z,34.4
2023-05-14T10:55:24.605Z,33.6
2023-05-14T10:58:24.609Z,34.8
2023-05-14T11:01:24.692Z,34.4
2023-05-14T11:04:24.629Z,34.4
2023-05-14T11:07:24.631Z,34.6
2023-05-14T11:10:24.755Z,34.1
2023-05-14T11:13:24.644Z,33.3
2023-05-14T11:16:24.661Z,34.1
2023-05-14T11:19:24.656Z,34
2023-05-14T11:22:24.646Z,34.6
2023-05-14T11:25:24.653Z,34.5
2023-05-14T11:28:24.667Z,35.3
2023-05-14T11:31:24.767Z,35.6
2023-05-14T11:34:29.685Z,36.3
2023-05-14T11:37:24.661Z,36.5
2023-05-14T11:40:24.843Z,36.7
2023-05-14T11:43:24.674Z,37
2023-05-14T11:46:24.708Z,37.1
2023-05-14T11:49:24.685Z,37.2
2023-05-14T11:52:24.710Z,35.8
2023-05-14T11:55:24.687Z,35.3
2023-05-14T11:58:24.701Z,35.7
2023-05-14T12:01:24.696Z,35.4
2023-05-14T12:04:24.714Z,34.7
2023-05-14T12:07:24.696Z,34.7
2023-05-14T12:10:24.981Z,34.8
2023-05-14T12:13:24.725Z,36
2023-05-14T12:16:24.806Z,37.3
2023-05-14T12:19:24.814Z,38.1
2023-05-14T12:22:24.730Z,38.2
2023-05-14T12:25:24.734Z,38.4
2023-05-14T12:28:24.742Z,39
2023-05-14T12:31:24.767Z,39.2
2023-05-14T12:34:24.747Z,39.4
2023-05-14T12:37:24.754Z,39.7
2023-05-14T12:40:24.933Z,40
2023-05-14T12:43:24.770Z,39.6
2023-05-14T12:46:24.778Z,38.7
2023-05-14T12:49:24.782Z,37.9
2023-05-14T12:52:36.575Z,37.7
2023-05-14T12:55:24.790Z,37.5
2023-05-14T12:58:24.803Z,38.1
2023-05-14T13:01:24.848Z,37.3
2023-05-14T13:04:24.865Z,38.6
2023-05-14T13:07:24.803Z,38.5
2023-05-14T13:10:24.899Z,37.2
2023-05-14T13:13:24.823Z,37.6
2023-05-14T13:16:24.809Z,36.2
2023-05-14T13:19:24.818Z,35.6
2023-05-14T13:22:24.811Z,35.5
2023-05-14T13:25:25.033Z,36.2
2023-05-14T13:28:24.828Z,36.3
2023-05-14T13:31:24.835Z,36.4
2023-05-14T13:34:24.969Z,36
2023-05-14T13:37:24.857Z,35.3
2023-05-14T13:40:24.851Z,35.8
2023-05-14T13:43:24.848Z,35.7
2023-05-14T13:46:24.892Z,36
2023-05-14T13:49:24.863Z,35.6
2023-05-14T13:52:24.880Z,34.9
2023-05-14T13:55:25.122Z,35.3
2023-05-14T13:58:24.878Z,34.3
2023-05-14T14:01:24.893Z,34.7
2023-05-14T14:04:24.932Z,34.9
2023-05-14T14:07:24.899Z,35.4
2023-05-14T14:10:24.916Z,35.1
2023-05-14T14:13:24.905Z,35.2
2023-05-14T14:16:24.954Z,34.8
2023-05-14T14:19:24.917Z,35.1
2023-05-14T14:22:26.217Z,34.7
2023-05-14T14:25:25.105Z,35.1
2023-05-14T14:28:24.946Z,33.9
2023-05-14T14:31:24.960Z,33
2023-05-14T14:34:24.980Z,32.9
2023-05-14T14:37:24.929Z,33.8
2023-05-14T14:40:24.941Z,33
2023-05-14T14:43:24.940Z,33.6
2023-05-14T14:46:24.985Z,33.3
2023-05-14T14:49:24.961Z,33.7
2023-05-14T14:52:24.967Z,33.9
2023-05-14T14:55:25.032Z,34.4
2023-05-14T14:58:25.021Z,34
2023-05-14T15:01:25.001Z,33.9
2023-05-14T15:04:24.979Z,34
2023-05-14T15:07:24.985Z,33.9
2023-05-14T15:10:24.971Z,34.7
2023-05-14T15:13:24.991Z,35.2
2023-05-14T15:16:25.057Z,34.7
2023-05-14T15:19:25.005Z,34.9
2023-05-14T15:22:25.000Z,34.6
2023-05-14T15:25:25.382Z,35.1
2023-05-14T15:28:25.004Z,35.1
2023-05-14T15:31:25.034Z,35.3
2023-05-14T15:34:25.032Z,35.6
2023-05-14T15:37:25.007Z,35.8
2023-05-14T15:40:25.101Z,35.8
2023-05-14T15:43:25.015Z,35.4
2023-05-14T15:46:25.038Z,35.3
2023-05-14T15:49:25.058Z,35.4
2023-05-14T15:52:25.045Z,36.9
2023-05-14T15:55:25.042Z,36.7
2023-05-14T15:58:25.053Z,36.7
2023-05-14T16:01:25.075Z,37.2
2023-05-14T16:04:25.105Z,37.6
2023-05-14T16:07:25.090Z,37.8
2023-05-14T16:10:25.234Z,37.5
2023-05-14T16:13:25.076Z,37.5
2023-05-14T16:16:25.130Z,37.5
2023-05-14T16:19:25.085Z,37.6
2023-05-14T16:22:25.082Z,38
2023-05-14T16:25:25.098Z,37.9
2023-05-14T16:28:25.085Z,38
2023-05-14T16:31:25.110Z,38.2
2023-05-14T16:34:25.107Z,38.1
2023-05-14T16:37:25.080Z,38.9
2023-05-14T16:40:25.215Z,38.7
2023-05-14T16:43:25.093Z,39.6
2023-05-14T16:46:25.144Z,40
2023-05-14T16:49:25.122Z,39.7
2023-05-14T16:52:25.106Z,40.3
2023-05-14T16:55:25.187Z,40.4
2023-05-14T16:58:25.115Z,40.6
2023-05-14T17:01:25.125Z,40.1
2023-05-14T17:04:25.155Z,40.7
2023-05-14T17:07:25.114Z,40.8
2023-05-14T17:10:25.121Z,40.6
2023-05-14T17:13:25.140Z,40.5
2023-05-14T17:16:25.157Z,41
2023-05-14T17:19:25.151Z,41.2
2023-05-14T17:22:25.136Z,41
2023-05-14T17:25:25.334Z,41.2
2023-05-14T17:28:25.149Z,41
2023-05-14T17:31:25.177Z,41.3
2023-05-14T17:34:25.157Z,41
2023-05-14T17:37:25.147Z,40.9
2023-05-14T17:40:25.148Z,40.8
2023-05-14T17:43:25.153Z,40.8
2023-05-14T17:46:25.196Z,41
2023-05-14T17:49:25.174Z,41.1
2023-05-14T17:52:25.171Z,40.9
2023-05-14T17:55:25.296Z,41.4
2023-05-14T17:58:25.173Z,42.2
2023-05-14T18:01:25.282Z,42.8
2023-05-14T18:04:25.198Z,43.7
2023-05-14T18:07:25.195Z,44.1
2023-05-14T18:10:25.204Z,44.8
2023-05-14T18:13:25.207Z,45.4
2023-05-14T18:16:25.238Z,46.1
2023-05-14T18:19:25.249Z,47.2
2023-05-14T18:22:25.261Z,47.5
2023-05-14T18:25:25.400Z,47.9
2023-05-14T18:28:25.286Z,48.1
2023-05-14T18:31:25.459Z,48.2
2023-05-14T18:34:25.320Z,48.2
2023-05-14T18:37:25.312Z,48
2023-05-14T18:40:25.316Z,48.1
2023-05-14T18:43:25.324Z,48.8
2023-05-14T18:46:25.345Z,49.2
2023-05-14T18:49:25.350Z,49.6
2023-05-14T18:52:25.335Z,50
2023-05-14T18:55:25.516Z,50.4
2023-05-14T18:58:25.334Z,51.4
2023-05-14T19:01:25.377Z,52.2
2023-05-14T19:04:25.356Z,53.2
2023-05-14T19:07:25.361Z,53.9
2023-05-14T19:10:25.380Z,54.3
2023-05-14T19:13:25.372Z,55.3
2023-05-14T19:16:25.386Z,55.4
2023-05-14T19:19:25.383Z,55.8
2023-05-14T19:22:25.373Z,55.9
2023-05-14T19:25:25.569Z,56.7
2023-05-14T19:28:25.374Z,56.6
2023-05-14T19:31:25.403Z,56.9
2023-05-14T19:34:25.403Z,56.7
2023-05-14T19:37:25.383Z,57
2023-05-14T19:40:25.390Z,57.2
2023-05-14T19:43:25.438Z,57.2
2023-05-14T19:46:25.429Z,56.6
2023-05-14T19:49:25.435Z,56.7
2023-05-14T19:52:25.419Z,56
2023-05-14T19:55:25.613Z,55.6
2023-05-14T19:58:25.419Z,55.4
2023-05-14T20:01:25.416Z,55.5
2023-05-14T20:04:25.436Z,55.5
2023-05-14T20:07:25.436Z,55.6
2023-05-14T20:10:25.617Z,55.6
2023-05-14T20:13:25.548Z,56
2023-05-14T20:16:25.435Z,56.2
2023-05-14T20:19:25.450Z,55.9
2023-05-14T20:22:25.436Z,55.8
2023-05-14T20:25:26.655Z,55.6
2023-05-14T20:28:25.434Z,55.7
2023-05-14T20:31:25.505Z,56.2
2023-05-14T20:34:25.447Z,56.4
2023-05-14T20:37:25.440Z,56.2
2023-05-14T20:40:25.465Z,56.2
2023-05-14T20:43:25.445Z,56.2
2023-05-14T20:46:25.459Z,56.4
2023-05-14T20:49:25.456Z,57
2023-05-14T20:52:25.450Z,56.8
2023-05-14T20:55:25.649Z,57.2
2023-05-14T20:58:25.459Z,58
2023-05-14T21:01:25.475Z,59.1
2023-05-14T21:04:25.650Z,59.3
2023-05-14T21:07:26.564Z,60.3
2023-05-14T21:10:25.606Z,60.4
2023-05-14T21:13:25.465Z,61
2023-05-14T21:16:25.493Z,60.4
2023-05-14T21:19:25.467Z,59.9
2023-05-14T21:22:25.465Z,60.4
2023-05-14T21:25:25.753Z,59.9
2023-05-14T21:28:25.474Z,59.7
2023-05-14T21:31:25.496Z,59.9
2023-05-14T21:34:25.490Z,60.4
2023-05-14T21:37:25.478Z,60.3
2023-05-14T21:40:25.488Z,62.2
2023-05-14T21:43:25.484Z,62.8
2023-05-14T21:46:25.481Z,63.5
2023-05-14T21:49:25.489Z,63.5
2023-05-14T21:52:25.486Z,63.8
2023-05-14T21:55:25.875Z,63.8
2023-05-14T21:58:25.479Z,63.6
2023-05-14T22:01:25.519Z,62.6
2023-05-14T22:04:25.499Z,63
2023-05-14T22:07:25.485Z,62.8
2023-05-14T22:10:25.490Z,63.6
2023-05-14T22:13:25.491Z,62.3
2023-05-14T22:16:25.519Z,61.6
2023-05-14T22:19:25.501Z,61.8
2023-05-14T22:22:25.491Z,61.9
2023-05-14T22:25:25.810Z,62.1
2023-05-14T22:28:25.495Z,62.7
2023-05-14T22:31:25.504Z,62.8
2023-05-14T22:34:25.507Z,63.9
2023-05-14T22:37:25.496Z,64
2023-05-14T22:40:25.494Z,64.4
2023-05-14T22:43:25.504Z,64.5
2023-05-14T22:46:25.523Z,64.3
2023-05-14T22:49:25.515Z,64
2023-05-14T22:52:25.498Z,63.9
2023-05-14T22:55:25.619Z,63.8
2023-05-14T22:58:25.506Z,63.7
2023-05-14T23:01:25.515Z,64.4
2023-05-14T23:04:25.534Z,65
2023-05-14T23:07:25.509Z,65.6
2023-05-14T23:10:25.527Z,66.6
2023-05-14T23:13:25.517Z,66.7
2023-05-14T23:16:25.509Z,66.8
2023-05-14T23:19:25.564Z,67
2023-05-14T23:22:25.518Z,67.7
2023-05-14T23:25:25.679Z,68.4
2023-05-14T23:28:25.537Z,69.1
2023-05-14T23:31:25.539Z,69.5
2023-05-14T23:34:25.541Z,69.9
2023-05-14T23:37:25.524Z,70.6
2023-05-14T23:40:25.532Z,71
2023-05-14T23:43:25.517Z,71.5
2023-05-14T23:46:25.604Z,72.2
2023-05-14T23:49:25.551Z,72.2
2023-05-14T23:52:25.529Z,73
2023-05-14T23:55:25.755Z,73.5
2023-05-14T23:58:25.525Z,74
